Time;durP1;ratioP1;P1;durP2;ratioP2;P2;SDS_P1;SDS_P2;PMS_P1;PMS_P2;Temp;Humidity;BMP_temperature;BMP_pressure;BME280_temperature;BME280_humidity;BME280_pressure;Samples;Min_cycle;Max_cycle;Signal;HPM_P1;HPM_P2
2022/09/29 00:01:02;;;;;;;10.93;2.63;;;;;;;23.79;70.12;100746.84;2095205;28;20072;-75
2022/09/29 00:02:25;;;;;;;14.00;3.13;;;;;;;23.77;69.97;100737.94;2095354;28;20119;-75
2022/09/29 00:03:47;;;;;;;14.95;3.45;;;;;;;23.76;70.10;100746.09;2095113;28;20036;-75
2022/09/29 00:05:09;;;;;;;14.77;2.83;;;;;;;23.76;69.89;100741.56;2095142;28;20115;-74
2022/09/29 00:06:33;;;;;;;14.10;2.42;;;;;;;23.79;69.94;100736.06;2095300;28;20201;-75
2022/09/29 00:07:54;;;;;;;11.18;2.72;;;;;;;23.80;69.76;100736.94;2095228;28;20059;-75
2022/09/29 00:09:17;;;;;;;12.27;2.63;;;;;;;23.82;69.37;100733.25;2103452;28;20048;-75
2022/09/29 00:10:39;;;;;;;10.25;2.80;;;;;;;23.86;69.15;100735.81;2097752;28;20210;-75
2022/09/29 00:12:02;;;;;;;8.20;2.70;;;;;;;23.86;69.12;100739.38;2087034;28;20076;-75
2022/09/29 00:13:24;;;;;;;10.45;2.40;;;;;;;23.88;68.65;100742.03;2092795;28;20622;-75
2022/09/29 00:14:46;;;;;;;9.13;2.30;;;;;;;23.90;68.38;100730.22;2086998;28;20523;-75
2022/09/29 00:16:09;;;;;;;13.48;3.60;;;;;;;23.91;67.93;100733.81;2092671;28;20144;-75
2022/09/29 00:17:31;;;;;;;11.65;2.85;;;;;;;23.88;67.97;100726.72;2087013;28;20390;-75
2022/09/29 00:18:55;;;;;;;9.82;3.33;;;;;;;23.87;67.88;100732.19;2101010;28;20048;-75
2022/09/29 00:20:16;;;;;;;9.82;3.47;;;;;;;23.83;67.71;100734.97;2097674;28;20060;-75
2022/09/29 00:21:40;;;;;;;14.40;2.45;;;;;;;23.82;67.83;100730.56;2097942;28;20439;-75
2022/09/29 00:23:04;;;;;;;12.88;3.00;;;;;;;23.84;67.66;100734.06;2097961;28;20133;-75
2022/09/29 00:24:27;;;;;;;10.85;3.25;;;;;;;23.88;67.36;100723.16;2097750;28;20135;-75
2022/09/29 00:25:49;;;;;;;9.40;2.70;;;;;;;23.89;67.33;100733.00;2086955;28;20376;-75
2022/09/29 00:27:14;;;;;;;14.75;2.83;;;;;;;23.88;67.32;100729.44;2092661;28;20460;-75
2022/09/29 00:28:38;;;;;;;8.60;2.38;;;;;;;23.88;67.38;100728.56;2095507;28;20480;-75
2022/09/29 00:30:00;;;;;;;11.73;2.60;;;;;;;23.87;67.23;100729.50;2095456;28;20098;-74
2022/09/29 00:31:24;;;;;;;9.32;2.28;;;;;;;23.79;67.35;100736.06;2103340;28;20036;-74
2022/09/29 00:32:46;;;;;;;11.75;2.70;;;;;;;23.77;67.44;100731.66;2097822;28;20056;-74
2022/09/29 00:34:08;;;;;;;11.23;2.30;;;;;;;23.77;67.58;100743.31;2097721;28;20502;-74
2022/09/29 00:35:31;;;;;;;16.02;2.47;;;;;;;23.80;68.19;100735.13;2095206;28;20083;-74
2022/09/29 00:36:55;;;;;;;8.02;2.28;;;;;;;23.86;68.56;100747.47;2086913;28;20041;-74
2022/09/29 00:38:16;;;;;;;11.75;3.70;;;;;;;23.90;68.82;100738.31;2101126;28;20048;-74
2022/09/29 00:39:39;;;;;;;9.90;2.40;;;;;;;23.94;69.58;100729.19;2097834;28;20037;-74
2022/09/29 00:41:01;;;;;;;13.52;3.80;;;;;;;23.99;69.86;100729.88;2103600;28;20052;-74
2022/09/29 00:42:25;;;;;;;16.15;3.58;;;;;;;24.05;70.44;100731.44;2089462;28;20480;-74
2022/09/29 00:43:57;;;;;;;12.07;2.80;;;;;;;24.11;71.00;100734.75;2101208;28;20040;-74
2022/09/29 00:45:20;;;;;;;;;;;;;;;24.16;71.36;100731.88;2106650;28;20384;-74
2022/09/29 00:46:46;;;;;;;15.15;2.70;;;;;;;24.23;71.65;100739.69;2089541;28;19971;-74
2022/09/29 00:48:16;;;;;;;15.07;3.65;;;;;;;24.30;71.83;100734.91;2101824;28;20036;-74
2022/09/29 00:49:42;;;;;;;17.08;3.33;;;;;;;24.37;71.92;100741.81;2089575;28;20041;-74
2022/09/29 00:51:05;;;;;;;13.48;2.88;;;;;;;24.42;71.99;100734.41;2094301;28;20048;-74
2022/09/29 00:52:34;;;;;;;12.48;2.90;;;;;;;24.50;72.10;100739.47;2103638;28;20052;-74
2022/09/29 00:53:59;;;;;;;18.77;2.90;;;;;;;24.55;72.02;100726.66;2089360;28;20045;-74
2022/09/29 00:55:26;;;;;;;14.82;2.95;;;;;;;24.61;71.99;100721.88;2087119;28;20056;-74
2022/09/29 00:56:50;;;;;;;13.73;3.55;;;;;;;24.67;71.47;100722.59;2095901;28;20044;-74
2022/09/29 00:58:21;;;;;;;13.90;2.65;;;;;;;24.71;71.43;100716.97;2095465;28;20500;-74
2022/09/29 00:59:49;;;;;;;14.10;3.15;;;;;;;24.76;71.20;100719.47;2096443;28;20419;-74
2022/09/29 01:01:12;;;;;;;11.38;2.67;;;;;;;24.78;70.80;100715.75;2099396;28;20057;-75
2022/09/29 01:02:38;;;;;;;10.82;2.53;;;;;;;24.84;70.49;100717.31;2105033;28;20078;-75
2022/09/29 01:04:04;;;;;;;9.00;2.20;;;;;;;24.88;70.31;100706.28;2090895;28;20552;-74
2022/09/29 01:05:31;;;;;;;13.27;2.35;;;;;;;24.92;69.88;100702.56;2103384;28;20036;-74
2022/09/29 01:06:57;;;;;;;16.35;2.50;;;;;;;24.94;69.90;100707.91;2099193;28;20045;-74
2022/09/29 01:08:27;;;;;;;12.15;2.83;;;;;;;24.96;69.50;100717.69;2088858;28;20045;-74
2022/09/29 01:09:53;;;;;;;11.25;2.70;;;;;;;24.95;69.54;100715.03;2095714;28;20398;-75
2022/09/29 01:11:17;;;;;;;6.88;1.83;;;;;;;24.93;69.50;100712.44;2096923;28;20041;-74
2022/09/29 01:12:38;;;;;;;10.50;2.45;;;;;;;24.93;69.36;100706.16;2099213;28;20067;-74
2022/09/29 01:14:05;;;;;;;9.00;2.35;;;;;;;24.90;69.72;100715.25;2096301;28;20143;-74
2022/09/29 01:15:28;;;;;;;11.82;3.08;;;;;;;24.89;69.57;100709.88;2097089;28;20041;-75
2022/09/29 01:16:51;;;;;;;12.95;2.95;;;;;;;24.87;70.04;100720.78;2099206;28;20036;-74
2022/09/29 01:18:14;;;;;;;11.00;2.13;;;;;;;24.83;70.21;100721.84;2096554;28;20052;-74
2022/09/29 01:19:46;;;;;;;17.55;2.92;;;;;;;24.81;70.26;100728.28;2096514;28;20490;-75
2022/09/29 01:21:18;;;;;;;12.57;2.33;;;;;;;24.78;70.27;100723.88;2097577;28;20661;-74
2022/09/29 01:23:25;;;;;;;16.05;3.72;;;;;;;24.74;69.90;100719.56;2097831;28;20040;-74
2022/09/29 01:25:10;;;;;;;12.07;2.78;;;;;;;24.70;69.78;100719.72;2099109;28;20047;-74
2022/09/29 01:26:55;;;;;;;10.50;2.25;;;;;;;24.66;69.95;100727.09;2082528;28;20140;-74
2022/09/29 01:28:48;;;;;;;12.35;2.13;;;;;;;24.65;69.59;100728.03;2099066;28;20044;-74
2022/09/29 01:30:19;;;;;;;9.85;2.30;;;;;;;24.64;69.81;100715.47;2074050;28;20446;-74
2022/09/29 01:31:49;;;;;;;12.07;2.05;;;;;;;24.62;69.56;100733.56;2087165;28;20044;-74
2022/09/29 01:33:25;;;;;;;7.95;2.00;;;;;;;24.59;69.73;100736.41;2097254;28;20105;-74
2022/09/29 01:34:58;;;;;;;12.10;3.10;;;;;;;24.60;69.38;100725.56;2098289;28;20052;-74
2022/09/29 01:36:29;;;;;;;17.02;2.75;;;;;;;24.57;69.35;100728.38;2090706;28;20102;-74
2022/09/29 01:38:02;;;;;;;13.35;2.35;;;;;;;24.59;69.01;100726.50;2089357;28;20081;-74
2022/09/29 01:39:30;;;;;;;8.68;1.95;;;;;;;24.60;68.66;100725.56;2097721;28;20040;-74
2022/09/29 01:41:00;;;;;;;10.45;2.22;;;;;;;24.60;68.38;100717.44;2097060;28;20044;-74
2022/09/29 01:42:27;;;;;;;9.35;1.92;;;;;;;24.61;68.44;100734.53;2099008;28;20130;-74
2022/09/29 01:43:58;;;;;;;16.77;2.60;;;;;;;24.60;68.34;100739.06;2088641;28;20052;-74
2022/09/29 01:45:27;;;;;;;9.70;1.98;;;;;;;24.61;68.13;100731.81;2079653;28;20136;-74
2022/09/29 01:46:52;;;;;;;13.05;2.03;;;;;;;24.61;67.84;100740.78;2102226;28;20159;-74
2022/09/29 01:48:19;;;;;;;12.88;2.30;;;;;;;24.61;67.75;100748.03;2098891;28;20557;-74
2022/09/29 01:49:45;;;;;;;13.02;2.40;;;;;;;24.62;68.02;100750.63;2096655;28;20118;-74
2022/09/29 01:51:16;;;;;;;8.07;2.03;;;;;;;24.62;67.89;100744.34;2096719;28;20036;-74
2022/09/29 01:52:41;;;;;;;9.15;1.83;;;;;;;24.63;67.81;100743.41;2097517;28;20438;-74
2022/09/29 01:54:08;;;;;;;10.73;2.28;;;;;;;24.67;67.48;100742.38;2104801;28;20135;-74
2022/09/29 01:55:33;;;;;;;7.93;2.00;;;;;;;24.68;67.28;100744.09;2098835;28;20143;-74
2022/09/29 01:57:00;;;;;;;16.27;2.80;;;;;;;24.70;66.82;100746.75;2088350;28;20491;-74
2022/09/29 01:58:28;;;;;;;7.20;2.00;;;;;;;24.71;66.43;100745.78;2094868;28;20056;-75
2022/09/29 01:59:54;;;;;;;12.40;2.30;;;;;;;24.73;66.30;100743.91;2096851;28;20051;-74
2022/09/29 02:01:19;;;;;;;7.72;1.52;;;;;;;24.74;65.60;100742.97;2088737;28;20088;-75
2022/09/29 02:02:47;;;;;;;8.65;2.00;;;;;;;24.77;65.76;100748.22;2085907;28;20051;-74
2022/09/29 02:04:15;;;;;;;9.75;2.13;;;;;;;24.79;65.96;100735.56;2088581;28;20128;-75
2022/09/29 02:05:42;;;;;;;13.13;2.17;;;;;;;24.81;66.27;100744.47;2086746;28;20135;-75
2022/09/29 02:07:08;;;;;;;12.70;2.78;;;;;;;24.81;66.75;100755.28;2094696;28;20412;-74
2022/09/29 02:08:38;;;;;;;6.68;2.08;;;;;;;24.79;67.45;100752.63;2098754;28;20489;-74
2022/09/29 02:10:06;;;;;;;9.27;1.83;;;;;;;24.78;67.63;100739.19;2105388;28;20059;-75
2022/09/29 02:11:34;;;;;;;9.93;1.80;;;;;;;24.77;68.26;100737.44;2098015;28;20098;-74
2022/09/29 02:13:00;;;;;;;10.60;2.05;;;;;;;24.76;68.42;100743.78;2096762;28;20059;-75
2022/09/29 02:14:24;;;;;;;15.45;2.72;;;;;;;24.74;68.54;100748.38;2096332;28;20049;-74
2022/09/29 02:15:51;;;;;;;8.35;1.67;;;;;;;24.71;68.69;100743.09;2104657;28;20076;-75
2022/09/29 02:17:18;;;;;;;11.25;2.17;;;;;;;24.68;68.78;100752.19;2098663;28;20435;-75
2022/09/29 02:18:49;;;;;;;11.07;2.50;;;;;;;24.68;68.90;100751.34;2096698;28;20640;-74
2022/09/29 02:20:13;;;;;;;10.85;2.20;;;;;;;24.65;69.36;100740.66;2096836;28;20051;-74
2022/09/29 02:21:36;;;;;;;13.00;2.42;;;;;;;24.62;69.54;100750.63;2089959;28;20071;-74
2022/09/29 02:22:57;;;;;;;7.95;2.00;;;;;;;24.60;69.41;100751.66;2087862;28;20116;-75
2022/09/29 02:24:21;;;;;;;5.82;1.63;;;;;;;24.58;69.14;100742.75;2084871;28;20041;-75
2022/09/29 02:25:47;;;;;;;11.05;1.98;;;;;;;24.57;68.98;100749.97;2096167;28;20040;-74
2022/09/29 02:27:08;;;;;;;10.98;2.00;;;;;;;24.55;69.14;100742.84;2098651;28;20037;-75
2022/09/29 02:28:31;;;;;;;8.27;1.95;;;;;;;24.53;69.15;100740.25;2095931;28;20131;-75
2022/09/29 02:29:54;;;;;;;9.85;2.15;;;;;;;24.52;69.40;100740.31;2096013;28;20048;-74
2022/09/29 02:31:18;;;;;;;12.82;1.90;;;;;;;24.51;69.29;100736.72;2096079;28;20037;-75
2022/09/29 02:32:39;;;;;;;10.30;2.17;;;;;;;24.48;69.81;100736.84;2087869;28;20077;-75
2022/09/29 02:34:04;;;;;;;12.68;2.75;;;;;;;24.49;69.74;100733.19;2093415;28;20131;-74
2022/09/29 02:35:30;;;;;;;7.72;2.15;;;;;;;24.47;70.26;100731.53;2096266;28;20152;-75
2022/09/29 02:37:00;;;;;;;13.15;2.38;;;;;;;24.46;70.41;100735.16;2096504;28;20044;-74
2022/09/29 02:38:30;;;;;;;9.73;2.17;;;;;;;24.45;70.54;100733.41;2105402;28;20083;-75
2022/09/29 02:40:05;;;;;;;13.52;2.53;;;;;;;24.44;70.82;100735.22;2098264;28;20140;-75
2022/09/29 02:41:41;;;;;;;8.23;1.80;;;;;;;24.42;71.03;100742.50;2097603;28;20492;-75
2022/09/29 02:43:19;;;;;;;11.65;2.83;;;;;;;24.38;71.22;100730.09;2098488;28;20044;-74
2022/09/29 02:44:58;;;;;;;12.32;2.35;;;;;;;24.37;71.59;100732.84;2098546;28;20051;-74
2022/09/29 02:46:39;;;;;;;10.48;2.30;;;;;;;24.33;71.69;100736.63;2098121;28;20072;-74
2022/09/29 02:48:31;;;;;;;12.68;3.40;;;;;;;24.31;71.96;100736.69;2098272;28;20401;-74
2022/09/29 02:50:14;;;;;;;7.72;1.90;;;;;;;24.30;71.87;100744.84;2098538;28;20137;-75
2022/09/29 02:51:40;;;;;;;7.53;1.80;;;;;;;24.28;71.95;100744.91;2098386;28;20138;-74
2022/09/29 02:53:09;;;;;;;9.52;2.45;;;;;;;24.28;71.72;100747.63;2096114;28;20090;-74
2022/09/29 02:54:47;;;;;;;11.52;2.53;;;;;;;24.28;71.63;100741.34;2096376;28;20139;-74
2022/09/29 02:56:17;;;;;;;13.23;2.72;;;;;;;24.27;71.51;100737.75;2097930;28;20109;-75
2022/09/29 02:57:48;;;;;;;13.23;2.17;;;;;;;24.25;71.49;100734.25;2081792;28;20049;-74
2022/09/29 02:59:15;;;;;;;8.00;2.03;;;;;;;24.26;71.43;100732.41;2103749;28;20526;-75
2022/09/29 03:00:38;;;;;;;9.55;2.38;;;;;;;24.25;71.30;100738.75;2098185;28;20573;-74
2022/09/29 03:02:01;;;;;;;9.07;1.75;;;;;;;24.24;71.36;100735.19;2095803;28;20105;-74
2022/09/29 03:03:22;;;;;;;9.45;2.42;;;;;;;24.25;71.00;100739.63;2095862;28;20126;-74
2022/09/29 03:04:45;;;;;;;7.97;1.88;;;;;;;24.24;70.46;100740.56;2095606;28;20067;-75
2022/09/29 03:06:11;;;;;;;12.38;2.13;;;;;;;24.24;70.49;100735.19;2095760;28;20139;-74
2022/09/29 03:07:33;;;;;;;10.57;2.30;;;;;;;24.25;70.04;100736.06;2104278;28;20081;-75
2022/09/29 03:08:55;;;;;;;9.75;2.17;;;;;;;24.24;70.23;100735.19;2098184;28;20052;-75
2022/09/29 03:10:18;;;;;;;8.63;2.47;;;;;;;24.23;69.96;100741.50;2103980;28;20529;-74
2022/09/29 03:11:40;;;;;;;6.32;1.65;;;;;;;24.21;70.37;100736.19;2098262;28;20040;-75
2022/09/29 03:13:02;;;;;;;12.00;2.67;;;;;;;24.20;70.50;100736.25;2095608;28;20098;-75
2022/09/29 03:14:23;;;;;;;11.93;2.80;;;;;;;24.17;70.54;100734.50;2095593;28;20102;-75
2022/09/29 03:15:46;;;;;;;8.77;1.55;;;;;;;24.16;70.66;100734.56;2103766;28;20040;-74
2022/09/29 03:17:08;;;;;;;12.75;2.40;;;;;;;24.13;70.70;100738.28;2098260;28;20048;-75
2022/09/29 03:18:30;;;;;;;10.80;2.38;;;;;;;24.10;71.17;100738.41;2095515;28;20044;-75
2022/09/29 03:19:56;;;;;;;11.40;2.03;;;;;;;24.08;71.05;100742.13;2104189;28;20642;-75
2022/09/29 03:21:19;;;;;;;7.82;1.80;;;;;;;24.06;71.22;100744.00;2089616;28;20136;-75
2022/09/29 03:22:42;;;;;;;13.15;2.75;;;;;;;24.05;71.22;100743.09;2101482;28;20040;-74
2022/09/29 03:24:04;;;;;;;10.77;2.17;;;;;;;24.04;71.29;100751.25;2097944;28;20044;-75
2022/09/29 03:25:28;;;;;;;10.45;1.90;;;;;;;24.01;71.38;100744.19;2098175;28;20496;-75
2022/09/29 03:26:51;;;;;;;12.13;3.05;;;;;;;24.02;71.02;100747.75;2087309;28;20089;-75
2022/09/29 03:28:12;;;;;;;15.00;2.42;;;;;;;23.98;71.21;100740.72;2095566;28;20132;-74
2022/09/29 03:29:35;;;;;;;14.93;2.28;;;;;;;23.98;70.99;100754.19;2097854;28;20380;-75
2022/09/29 03:31:04;;;;;;;9.55;1.85;;;;;;;23.97;70.68;100753.31;2103915;28;20094;-75
2022/09/29 03:32:28;;;;;;;6.40;2.00;;;;;;;23.96;70.58;100753.41;2089668;28;20531;-75
2022/09/29 03:33:49;;;;;;;8.80;2.22;;;;;;;23.92;70.27;100755.31;2101544;28;20138;-75
2022/09/29 03:35:12;;;;;;;11.52;2.42;;;;;;;23.91;70.01;100753.56;2098009;28;20147;-75
2022/09/29 03:36:37;;;;;;;7.35;1.80;;;;;;;23.90;69.53;100759.00;2095637;28;20558;-74
2022/09/29 03:38:00;;;;;;;14.13;2.15;;;;;;;23.89;69.07;100763.56;2098183;28;20531;-75
2022/09/29 03:39:23;;;;;;;12.38;2.40;;;;;;;23.88;68.80;100763.59;2104009;28;20380;-75
2022/09/29 03:40:45;;;;;;;9.23;2.08;;;;;;;23.86;68.52;100755.56;2098068;28;20037;-75
2022/09/29 03:42:07;;;;;;;9.65;3.28;;;;;;;23.84;68.30;100761.00;2095375;28;20052;-74
2022/09/29 03:43:29;;;;;;;11.30;1.80;;;;;;;23.83;68.13;100769.16;2098050;28;20037;-74
2022/09/29 03:44:50;;;;;;;8.63;1.50;;;;;;;23.82;68.18;100773.69;2098033;28;20087;-75
2022/09/29 03:46:13;;;;;;;8.90;1.63;;;;;;;23.74;67.66;100774.94;2095292;28;20508;-75
2022/09/29 03:47:34;;;;;;;8.02;1.50;;;;;;;23.64;67.29;100768.13;2095306;28;20049;-75
2022/09/29 03:48:56;;;;;;;9.25;2.00;;;;;;;23.63;67.05;100766.38;2095187;28;20041;-74
2022/09/29 03:50:19;;;;;;;11.18;2.40;;;;;;;23.60;67.00;100770.06;2095351;28;20086;-74
2022/09/29 03:51:44;;;;;;;13.10;2.42;;;;;;;23.55;66.64;100763.97;2087109;28;20151;-75
2022/09/29 03:53:06;;;;;;;10.07;2.75;;;;;;;23.49;66.31;100758.81;2095388;28;20097;-75
2022/09/29 03:54:30;;;;;;;9.80;1.83;;;;;;;23.43;66.08;100750.94;2089602;28;20041;-74
2022/09/29 03:55:51;;;;;;;9.52;1.95;;;;;;;23.36;66.11;100760.16;2093126;28;20044;-74
2022/09/29 03:57:14;;;;;;;7.65;1.48;;;;;;;23.32;66.02;100774.69;2086889;28;20071;-75
2022/09/29 03:58:35;;;;;;;11.10;1.58;;;;;;;23.32;66.00;100771.97;2092887;28;20139;-75
2022/09/29 03:59:58;;;;;;;11.23;1.35;;;;;;;23.34;65.73;100779.09;2095460;28;20091;-75
2022/09/29 04:01:20;;;;;;;8.55;1.42;;;;;;;23.42;65.57;100778.81;2087193;28;20397;-75
2022/09/29 04:02:42;;;;;;;10.10;1.63;;;;;;;23.52;65.21;100779.34;2095314;28;20052;-75
2022/09/29 04:04:06;;;;;;;10.68;2.72;;;;;;;23.61;64.84;100779.03;2097852;28;20135;-74
2022/09/29 04:05:30;;;;;;;10.00;1.95;;;;;;;23.68;64.48;100784.13;2087266;28;20045;-74
2022/09/29 04:06:54;;;;;;;9.07;1.98;;;;;;;23.73;64.09;100779.44;2093400;28;20048;-74
2022/09/29 04:08:17;;;;;;;7.97;1.90;;;;;;;23.78;63.74;100782.81;2098008;28;20557;-75
2022/09/29 04:09:39;;;;;;;13.02;1.63;;;;;;;23.86;63.30;100781.66;2095424;28;20552;-75
2022/09/29 04:11:05;;;;;;;7.38;1.27;;;;;;;23.91;63.13;100787.75;2087149;28;20390;-74
2022/09/29 04:12:27;;;;;;;7.13;2.15;;;;;;;23.97;62.88;100782.09;2093463;28;20051;-75
2022/09/29 04:13:48;;;;;;;6.38;1.50;;;;;;;24.01;62.77;100784.66;2095959;28;20441;-75
2022/09/29 04:15:11;;;;;;;10.43;1.70;;;;;;;24.04;62.64;100794.41;2103447;28;20047;-74
2022/09/29 04:16:33;;;;;;;8.35;1.92;;;;;;;24.06;62.41;100789.84;2097935;28;20358;-75
2022/09/29 04:17:56;;;;;;;9.77;1.90;;;;;;;24.08;62.39;100788.88;2095442;28;20048;-74
2022/09/29 04:19:17;;;;;;;9.68;1.70;;;;;;;24.13;62.02;100785.97;2098027;28;20076;-73
2022/09/29 04:20:40;;;;;;;8.30;1.80;;;;;;;24.18;61.74;100787.53;2097840;28;20048;-72
2022/09/29 04:22:04;;;;;;;11.30;1.75;;;;;;;24.25;61.41;100788.19;2097860;28;20119;-73
2022/09/29 04:23:26;;;;;;;11.48;1.52;;;;;;;24.27;61.46;100797.13;2089518;28;20525;-73
2022/09/29 04:24:49;;;;;;;9.18;1.55;;;;;;;24.32;61.07;100791.53;2084537;28;20037;-73
2022/09/29 04:26:11;;;;;;;11.52;2.30;;;;;;;24.37;60.77;100794.91;2092710;28;20052;-73
2022/09/29 04:27:34;;;;;;;7.97;1.10;;;;;;;24.44;60.66;100802.72;2095320;28;20158;-73
2022/09/29 04:28:57;;;;;;;9.32;1.00;;;;;;;24.49;60.10;100798.00;2095050;28;20102;-73
2022/09/29 04:30:20;;;;;;;9.32;1.52;;;;;;;24.56;59.81;100798.63;2097842;28;20496;-73
2022/09/29 04:31:42;;;;;;;9.18;1.45;;;;;;;24.60;59.76;100801.16;2097760;28;20048;-73
2022/09/29 04:33:05;;;;;;;7.63;1.20;;;;;;;24.65;59.62;100803.66;2097796;28;20488;-73
2022/09/29 04:34:27;;;;;;;10.13;1.60;;;;;;;24.68;59.53;100813.44;2097697;28;20098;-73
2022/09/29 04:35:50;;;;;;;7.47;1.10;;;;;;;24.73;59.32;100811.44;2099592;28;20040;-74
2022/09/29 04:37:14;;;;;;;7.78;2.05;;;;;;;24.74;59.00;100800.56;2099369;28;20500;-73
2022/09/29 04:38:36;;;;;;;8.93;1.50;;;;;;;24.78;58.86;100809.41;2088739;28;20049;-73
2022/09/29 04:39:58;;;;;;;10.50;1.80;;;;;;;24.82;58.83;100806.50;2094037;28;20404;-73
2022/09/29 04:41:20;;;;;;;8.82;1.52;;;;;;;24.86;58.77;100808.16;2096778;28;20040;-73
2022/09/29 04:42:42;;;;;;;6.35;1.63;;;;;;;24.91;58.75;100811.56;2096667;28;20060;-73
2022/09/29 04:44:05;;;;;;;7.35;1.50;;;;;;;24.96;58.52;100817.63;2099390;28;20113;-73
2022/09/29 04:45:26;;;;;;;7.88;1.20;;;;;;;24.98;58.18;100815.75;2099479;28;20126;-73
2022/09/29 04:46:50;;;;;;;5.40;1.10;;;;;;;25.00;58.34;100813.88;2096710;28;20064;-73
2022/09/29 04:48:13;;;;;;;4.80;1.30;;;;;;;25.03;58.56;100815.56;2088709;28;20174;-73
2022/09/29 04:49:36;;;;;;;11.50;1.92;;;;;;;25.08;58.07;100815.34;2102231;28;20048;-73
2022/09/29 04:51:00;;;;;;;12.90;3.10;;;;;;;25.10;57.99;100808.94;2091100;28;20501;-73
2022/09/29 04:52:23;;;;;;;10.07;3.92;;;;;;;25.16;57.87;100805.97;2094365;28;20407;-73
2022/09/29 04:53:46;;;;;;;12.45;3.15;;;;;;;25.20;57.83;100817.53;2105031;28;20377;-74
2022/09/29 04:55:10;;;;;;;10.10;2.28;;;;;;;25.25;57.89;100819.09;2099294;28;20550;-73
2022/09/29 04:56:32;;;;;;;5.70;1.77;;;;;;;25.27;57.75;100816.31;2099337;28;20055;-73
2022/09/29 04:57:55;;;;;;;9.18;1.70;;;;;;;25.32;57.71;100820.56;2096757;28;20457;-73
2022/09/29 04:59:18;;;;;;;8.18;1.13;;;;;;;25.36;57.89;100818.59;2096519;28;20460;-74
2022/09/29 05:00:40;;;;;;;5.70;1.77;;;;;;;25.39;57.87;100816.66;2096744;28;20040;-73
2022/09/29 05:02:02;;;;;;;7.38;1.63;;;;;;;25.46;57.85;100824.47;2096670;28;20052;-74
2022/09/29 05:03:24;;;;;;;6.90;1.05;;;;;;;25.48;57.74;100825.28;2096627;28;20049;-73
2022/09/29 05:04:48;;;;;;;4.97;1.35;;;;;;;25.48;57.72;100822.56;2104957;28;20074;-73
2022/09/29 05:06:09;;;;;;;7.95;1.42;;;;;;;25.53;57.43;100818.75;2099152;28;20082;-73
2022/09/29 05:07:35;;;;;;;8.07;1.05;;;;;;;25.58;57.05;100811.31;2096601;28;20040;-74
2022/09/29 05:08:57;;;;;;;5.40;2.05;;;;;;;25.65;57.23;100814.63;2088659;28;20440;-73
2022/09/29 05:10:20;;;;;;;8.65;2.95;;;;;;;25.69;56.76;100813.53;2093955;28;20044;-74
2022/09/29 05:11:43;;;;;;;9.68;3.03;;;;;;;25.76;56.82;100817.69;2088163;28;20087;-74
2022/09/29 05:13:05;;;;;;;7.55;2.00;;;;;;;25.86;56.43;100824.47;2094021;28;20047;-73
2022/09/29 05:14:26;;;;;;;6.40;1.65;;;;;;;25.94;56.23;100821.38;2096566;28;20141;-74
2022/09/29 05:15:55;;;;;;;8.68;1.90;;;;;;;26.03;56.06;100813.72;2096505;28;20037;-74
2022/09/29 05:17:18;;;;;;;8.70;1.60;;;;;;;26.14;55.90;100815.88;2089021;28;20037;-74
2022/09/29 05:18:39;;;;;;;6.53;1.70;;;;;;;26.20;55.50;100821.88;2088324;28;20064;-74
2022/09/29 05:20:02;;;;;;;11.13;2.67;;;;;;;26.27;55.40;100824.31;2093609;28;20036;-74
2022/09/29 05:21:25;;;;;;;7.90;1.88;;;;;;;26.35;55.31;100820.31;2087988;28;20122;-74
2022/09/29 05:22:48;;;;;;;5.75;2.20;;;;;;;26.43;55.07;100814.53;2094091;28;20037;-74
2022/09/29 05:24:11;;;;;;;5.43;2.15;;;;;;;26.51;54.83;100820.44;2104745;28;20461;-74
2022/09/29 05:25:34;;;;;;;8.57;1.35;;;;;;;26.67;54.79;100821.41;2099206;28;20405;-74
2022/09/29 05:26:57;;;;;;;6.72;1.00;;;;;;;26.85;54.67;100822.31;2096598;28;20044;-74
2022/09/29 05:28:20;;;;;;;6.70;1.60;;;;;;;26.98;54.35;100806.38;2088226;28;20463;-74
2022/09/29 05:29:42;;;;;;;9.02;1.15;;;;;;;27.03;53.99;100812.44;2094041;28;20461;-74
2022/09/29 05:31:07;;;;;;;4.63;1.25;;;;;;;27.03;53.83;100815.13;2096671;28;20101;-74
2022/09/29 05:32:30;;;;;;;11.77;3.83;;;;;;;26.97;53.73;100813.63;2105213;28;20051;-74
2022/09/29 05:33:53;;;;;;;7.68;3.08;;;;;;;26.90;53.71;100814.88;2099033;28;20119;-74
2022/09/29 05:35:16;;;;;;;7.88;2.88;;;;;;;26.87;53.75;100813.16;2088147;28;20045;-74
2022/09/29 05:36:38;;;;;;;9.35;1.95;;;;;;;26.92;53.64;100818.38;2093853;28;20499;-74
2022/09/29 05:38:02;;;;;;;5.57;1.58;;;;;;;27.02;53.34;100821.50;2096341;28;20506;-73
2022/09/29 05:39:25;;;;;;;7.88;2.20;;;;;;;27.13;53.31;100816.41;2104527;28;20088;-74
2022/09/29 05:40:46;;;;;;;5.78;3.05;;;;;;;27.26;52.98;100801.25;2090668;28;20045;-73
2022/09/29 05:42:12;;;;;;;5.55;1.20;;;;;;;27.43;52.92;100803.94;2093731;28;20055;-73
2022/09/29 05:43:34;;;;;;;4.75;1.00;;;;;;;27.60;52.78;100800.34;2096918;28;20052;-73
2022/09/29 05:44:55;;;;;;;9.93;1.52;;;;;;;27.75;52.35;100808.53;2104617;28;20045;-73
2022/09/29 05:46:18;;;;;;;6.78;2.03;;;;;;;27.90;52.02;100808.63;2098080;28;20048;-74
2022/09/29 05:47:43;;;;;;;7.80;1.17;;;;;;;28.02;51.91;100811.56;2088141;28;20489;-73
2022/09/29 05:49:05;;;;;;;8.32;1.95;;;;;;;28.16;51.54;100812.66;2094295;28;20045;-73
2022/09/29 05:50:28;;;;;;;9.07;1.20;;;;;;;28.28;51.09;100820.13;2096491;28;20048;-73
2022/09/29 05:51:50;;;;;;;8.40;1.50;;;;;;;28.40;50.84;100809.41;2087978;28;20155;-74
2022/09/29 05:53:14;;;;;;;10.00;1.27;;;;;;;28.54;50.56;100812.22;2093516;28;20082;-74
2022/09/29 05:54:36;;;;;;;9.63;1.25;;;;;;;28.66;50.07;100813.34;2087891;28;20048;-74
2022/09/29 05:55:59;;;;;;;7.88;1.38;;;;;;;28.79;49.75;100814.41;2093811;28;20587;-74
2022/09/29 05:57:22;;;;;;;9.00;1.75;;;;;;;28.91;49.43;100818.22;2096297;28;20063;-74
2022/09/29 05:58:44;;;;;;;5.13;0.93;;;;;;;29.02;49.08;100815.72;2096175;28;20036;-74
2022/09/29 06:00:08;;;;;;;8.38;1.30;;;;;;;29.18;48.69;100816.56;2096058;28;20062;-74
2022/09/29 06:01:34;;;;;;;7.28;1.25;;;;;;;29.35;48.32;100823.72;2096821;28;20052;-73
2022/09/29 06:02:59;;;;;;;6.93;1.20;;;;;;;29.53;47.97;100821.72;2096143;28;20045;-74
2022/09/29 06:04:21;;;;;;;10.32;1.73;;;;;;;29.69;47.45;100830.69;2096290;28;20097;-74
2022/09/29 06:05:44;;;;;;;7.45;0.90;;;;;;;29.88;47.06;100814.03;2096222;28;20452;-73
2022/09/29 06:07:06;;;;;;;6.25;0.80;;;;;;;30.05;46.39;100822.94;2096154;28;20041;-74
2022/09/29 06:08:30;;;;;;;8.10;1.83;;;;;;;30.25;46.45;100826.22;2104487;28;20542;-73
2022/09/29 06:09:52;;;;;;;9.43;2.60;;;;;;;30.45;45.79;100825.78;2098819;28;20037;-75
2022/09/29 06:11:17;;;;;;;20.48;6.30;;;;;;;30.72;45.55;100826.69;2096085;28;20044;-74
2022/09/29 06:12:40;;;;;;;15.02;6.00;;;;;;;30.98;45.20;100834.97;2096293;28;20033;-74
2022/09/29 06:14:03;;;;;;;17.45;3.10;;;;;;;31.16;44.39;100831.03;2095974;28;20052;-75
2022/09/29 06:15:25;;;;;;;11.45;1.85;;;;;;;31.32;44.23;100830.81;2096217;28;20044;-74
2022/09/29 06:16:49;;;;;;;7.05;1.52;;;;;;;31.45;43.66;100832.56;2096298;28;20047;-74
2022/09/29 06:18:12;;;;;;;9.05;1.67;;;;;;;31.54;43.05;100831.06;2096123;28;20109;-74
2022/09/29 06:19:35;;;;;;;9.10;1.85;;;;;;;31.60;42.38;100825.19;2104410;28;20060;-74
2022/09/29 06:21:02;;;;;;;7.88;1.60;;;;;;;31.65;42.35;100826.63;2098532;28;20162;-74
2022/09/29 06:22:26;;;;;;;7.78;1.40;;;;;;;31.70;42.46;100830.91;2096627;28;20119;-74
2022/09/29 06:23:51;;;;;;;11.07;1.40;;;;;;;31.78;42.36;100823.00;2096176;28;20047;-74
2022/09/29 06:25:13;;;;;;;7.10;1.33;;;;;;;31.84;42.10;100823.44;2096242;28;20054;-73
2022/09/29 06:26:35;;;;;;;7.45;1.20;;;;;;;31.91;41.80;100826.59;2104344;28;20487;-74
2022/09/29 06:27:58;;;;;;;16.02;2.50;;;;;;;32.03;41.34;100823.84;2098498;28;20059;-74
2022/09/29 06:29:21;;;;;;;11.55;1.45;;;;;;;32.15;40.56;100824.00;2095765;28;20047;-74
2022/09/29 06:30:44;;;;;;;13.50;2.70;;;;;;;32.25;39.90;100825.06;2096007;28;20064;-74
2022/09/29 06:32:06;;;;;;;10.65;1.42;;;;;;;32.35;39.66;100829.75;2087662;28;20114;-74
2022/09/29 06:33:30;;;;;;;10.10;1.95;;;;;;;32.41;39.40;100826.56;2093078;28;20544;-74